RYR201 LSZH-LIMJ
Flight info
| Callsign | RYR201 |
|---|---|
| Flight time | N/A |
| Altitude | 24000 |
| Route | VEBIT T53 GERSA/N0406F230 N850 ODINA DCT SRN/N0387F190 M858 VOG |
| Aircraft | B738/M-SDE2E3FGHIRWXY/LB1 |
Departure
| Time | N/A |
|---|---|
| Airport | Zürich Airport (LSZH) |
Arrival
| Time | 2026-04-21 20:41 |
|---|---|
| Airport | Genoa Cristoforo Colombo Airport (LIMJ) |
| Time | Latitude | Longitude | Altitude | Speed | Heading |
|---|---|---|---|---|---|
| 2026-04-21 19:55 | 46.46782 | 8.61356 | 24041 ft | 480 kts | 180° |
| 2026-04-21 19:55 | 46.43337 | 8.61840 | 24024 ft | 480 kts | 181° |
| 2026-04-21 19:56 | 46.40140 | 8.62286 | 24041 ft | 480 kts | 181° |
| 2026-04-21 19:56 | 46.36815 | 8.62762 | 24019 ft | 482 kts | 180° |
| 2026-04-21 19:56 | 46.33478 | 8.63244 | 24044 ft | 482 kts | 181° |
| 2026-04-21 19:56 | 46.30126 | 8.63717 | 23993 ft | 485 kts | 180° |
| 2026-04-21 19:57 | 46.26766 | 8.64193 | 24001 ft | 485 kts | 180° |
| 2026-04-21 19:57 | 46.23410 | 8.64670 | 23990 ft | 484 kts | 181° |
| 2026-04-21 19:57 | 46.20065 | 8.65133 | 23978 ft | 482 kts | 181° |
| 2026-04-21 19:57 | 46.16730 | 8.65548 | 24005 ft | 482 kts | 180° |
| 2026-04-21 19:58 | 46.13390 | 8.66165 | 24015 ft | 487 kts | 176° |
| 2026-04-21 19:58 | 46.10071 | 8.67302 | 23956 ft | 493 kts | 167° |
| 2026-04-21 19:58 | 46.06855 | 8.69081 | 23966 ft | 498 kts | 158° |
| 2026-04-21 19:58 | 46.03746 | 8.71278 | 24021 ft | 497 kts | 158° |
| 2026-04-21 19:59 | 46.00690 | 8.73642 | 23992 ft | 501 kts | 154° |
| 2026-04-21 19:59 | 45.97675 | 8.76174 | 24008 ft | 502 kts | 154° |
| 2026-04-21 19:59 | 45.94676 | 8.78691 | 23983 ft | 500 kts | 154° |
| 2026-04-21 19:59 | 45.91705 | 8.81127 | 23989 ft | 482 kts | 155° |
| 2026-04-21 20:00 | 45.88815 | 8.83436 | 23972 ft | 466 kts | 156° |
| 2026-04-21 20:00 | 45.86016 | 8.85631 | 23967 ft | 451 kts | 157° |
| 2026-04-21 20:00 | 45.83304 | 8.87736 | 23969 ft | 436 kts | 157° |
| 2026-04-21 20:00 | 45.80678 | 8.89768 | 23975 ft | 423 kts | 157° |
| 2026-04-21 20:01 | 45.78126 | 8.91743 | 23970 ft | 409 kts | 158° |
| 2026-04-21 20:01 | 45.75666 | 8.93648 | 23972 ft | 396 kts | 158° |
| 2026-04-21 20:01 | 45.73277 | 8.95498 | 23952 ft | 384 kts | 158° |
| 2026-04-21 20:01 | 45.70958 | 8.97293 | 23976 ft | 374 kts | 158° |
| 2026-04-21 20:02 | 45.68671 | 8.99061 | 23995 ft | 374 kts | 158° |
| 2026-04-21 20:02 | 45.66379 | 9.00704 | 23998 ft | 373 kts | 167° |
| 2026-04-21 20:02 | 45.63871 | 9.01715 | 24019 ft | 365 kts | 179° |
| 2026-04-21 20:02 | 45.61384 | 9.02038 | 23996 ft | 353 kts | 191° |
| 2026-04-21 20:03 | 45.58948 | 9.01886 | 24007 ft | 349 kts | 193° |
| 2026-04-21 20:03 | 45.56524 | 9.01677 | 23995 ft | 349 kts | 194° |
| 2026-04-21 20:03 | 45.54103 | 9.01459 | 23994 ft | 349 kts | 194° |
| 2026-04-21 20:03 | 45.51677 | 9.01245 | 23996 ft | 350 kts | 193° |
| 2026-04-21 20:04 | 45.49242 | 9.01037 | 23857 ft | 352 kts | 193° |
| 2026-04-21 20:04 | 45.46799 | 9.00838 | 23582 ft | 349 kts | 193° |
| 2026-04-21 20:04 | 45.44392 | 9.00653 | 23317 ft | 342 kts | 193° |
| 2026-04-21 20:04 | 45.42035 | 9.00475 | 23074 ft | 336 kts | 193° |
| 2026-04-21 20:05 | 45.39711 | 9.00297 | 23033 ft | 334 kts | 193° |
| 2026-04-21 20:05 | 45.37393 | 9.00116 | 22986 ft | 334 kts | 193° |
| 2026-04-21 20:05 | 45.35073 | 8.99935 | 22996 ft | 334 kts | 193° |
| 2026-04-21 20:05 | 45.32747 | 8.99754 | 22989 ft | 336 kts | 193° |
| 2026-04-21 20:06 | 45.30431 | 8.99491 | 22975 ft | 330 kts | 200° |
| 2026-04-21 20:06 | 45.28206 | 8.98832 | 22990 ft | 325 kts | 203° |
| 2026-04-21 20:06 | 45.26000 | 8.98128 | 22977 ft | 325 kts | 203° |
| 2026-04-21 20:06 | 45.23797 | 8.97417 | 22976 ft | 325 kts | 203° |
| 2026-04-21 20:07 | 45.21589 | 8.96702 | 22973 ft | 325 kts | 203° |
| 2026-04-21 20:07 | 45.19386 | 8.95985 | 22969 ft | 325 kts | 203° |
| 2026-04-21 20:07 | 45.17182 | 8.95267 | 22978 ft | 325 kts | 203° |
| 2026-04-21 20:07 | 45.15004 | 8.94560 | 22967 ft | 326 kts | 203° |
| 2026-04-21 20:08 | 45.12768 | 8.93831 | 22966 ft | 326 kts | 203° |
| 2026-04-21 20:08 | 45.10559 | 8.93110 | 22969 ft | 326 kts | 203° |
| 2026-04-21 20:08 | 45.08376 | 8.92397 | 22972 ft | 326 kts | 203° |
| 2026-04-21 20:08 | 45.06160 | 8.91674 | 22967 ft | 327 kts | 203° |
| 2026-04-21 20:09 | 45.03946 | 8.90951 | 22965 ft | 327 kts | 203° |
| 2026-04-21 20:09 | 45.01729 | 8.90225 | 22966 ft | 328 kts | 203° |
| 2026-04-21 20:09 | 44.99510 | 8.89499 | 22960 ft | 328 kts | 203° |
| 2026-04-21 20:09 | 44.97287 | 8.88772 | 22967 ft | 328 kts | 203° |
| 2026-04-21 20:10 | 44.95065 | 8.88029 | 22959 ft | 325 kts | 207° |
| 2026-04-21 20:10 | 44.93133 | 8.86669 | 22960 ft | 300 kts | 231° |
| 2026-04-21 20:10 | 44.91857 | 8.84486 | 22967 ft | 281 kts | 249° |
| 2026-04-21 20:10 | 44.90961 | 8.82051 | 22957 ft | 279 kts | 252° |
| 2026-04-21 20:11 | 44.90129 | 8.79583 | 22954 ft | 279 kts | 253° |
| 2026-04-21 20:11 | 44.89309 | 8.77107 | 22953 ft | 279 kts | 253° |
| 2026-04-21 20:11 | 44.88492 | 8.74624 | 22953 ft | 279 kts | 253° |
| 2026-04-21 20:11 | 44.87634 | 8.72154 | 22945 ft | 285 kts | 245° |
| 2026-04-21 20:12 | 44.86192 | 8.70133 | 22959 ft | 306 kts | 221° |
| 2026-04-21 20:12 | 44.84134 | 8.69052 | 22948 ft | 329 kts | 197° |
| 2026-04-21 20:12 | 44.81797 | 8.68990 | 22972 ft | 340 kts | 185° |
| 2026-04-21 20:12 | 44.79429 | 8.69236 | 22953 ft | 340 kts | 184° |
| 2026-04-21 20:13 | 44.77086 | 8.69537 | 22699 ft | 338 kts | 184° |
| 2026-04-21 20:13 | 44.74739 | 8.69847 | 22319 ft | 340 kts | 183° |
| 2026-04-21 20:13 | 44.72390 | 8.70157 | 22006 ft | 338 kts | 183° |
| 2026-04-21 20:13 | 44.70049 | 8.70461 | 21731 ft | 336 kts | 183° |
| 2026-04-21 20:14 | 44.67728 | 8.70758 | 21435 ft | 334 kts | 183° |
| 2026-04-21 20:14 | 44.65422 | 8.71047 | 21150 ft | 332 kts | 183° |
| 2026-04-21 20:14 | 44.63134 | 8.71329 | 20829 ft | 328 kts | 183° |
| 2026-04-21 20:14 | 44.60858 | 8.71607 | 20435 ft | 327 kts | 183° |
| 2026-04-21 20:15 | 44.58597 | 8.71874 | 20033 ft | 326 kts | 183° |
| 2026-04-21 20:15 | 44.56338 | 8.72134 | 19651 ft | 325 kts | 183° |
| 2026-04-21 20:15 | 44.54095 | 8.72385 | 19312 ft | 321 kts | 183° |
| 2026-04-21 20:15 | 44.51875 | 8.72628 | 18930 ft | 320 kts | 183° |
| 2026-04-21 20:16 | 44.49663 | 8.72864 | 18569 ft | 317 kts | 183° |
| 2026-04-21 20:16 | 44.47469 | 8.73093 | 18178 ft | 315 kts | 183° |
| 2026-04-21 20:16 | 44.45293 | 8.73304 | 17957 ft | 312 kts | 183° |
| 2026-04-21 20:16 | 44.43093 | 8.73508 | 17954 ft | 321 kts | 183° |
| 2026-04-21 20:17 | 44.40882 | 8.74094 | 17921 ft | 331 kts | 159° |
| 2026-04-21 20:17 | 44.39059 | 8.76054 | 17933 ft | 336 kts | 128° |
| 2026-04-21 20:17 | 44.38084 | 8.78961 | 17783 ft | 329 kts | 97° |
| 2026-04-21 20:17 | 44.38027 | 8.82110 | 17445 ft | 323 kts | 80° |
| 2026-04-21 20:18 | 44.38246 | 8.84155 | 17211 ft | 321 kts | 72° |
| 2026-04-21 20:18 | 44.38961 | 8.88102 | 17088 ft | 305 kts | 69° |
| 2026-04-21 20:18 | 44.39497 | 8.90948 | 16888 ft | 301 kts | 70° |
| 2026-04-21 20:18 | 44.40004 | 8.93784 | 16631 ft | 300 kts | 71° |
| 2026-04-21 20:19 | 44.40491 | 8.96613 | 16376 ft | 299 kts | 72° |
| 2026-04-21 20:19 | 44.40968 | 8.99442 | 16120 ft | 298 kts | 74° |
| 2026-04-21 20:19 | 44.41000 | 9.02330 | 15943 ft | 301 kts | 104° |
| 2026-04-21 20:19 | 44.40095 | 9.04905 | 15917 ft | 293 kts | 133° |
| 2026-04-21 20:20 | 44.38499 | 9.06673 | 15961 ft | 296 kts | 160° |
| 2026-04-21 20:20 | 44.36555 | 9.07405 | 15967 ft | 284 kts | 183° |
| 2026-04-21 20:20 | 44.34589 | 9.07310 | 15952 ft | 282 kts | 192° |
| 2026-04-21 20:20 | 44.32634 | 9.07014 | 15955 ft | 284 kts | 193° |
| 2026-04-21 20:21 | 44.30662 | 9.06708 | 15950 ft | 286 kts | 192° |
| 2026-04-21 20:21 | 44.28662 | 9.06911 | 15935 ft | 298 kts | 162° |
| 2026-04-21 20:21 | 44.26891 | 9.08425 | 15986 ft | 302 kts | 145° |
| 2026-04-21 20:21 | 44.25233 | 9.10237 | 15963 ft | 303 kts | 145° |
| 2026-04-21 20:22 | 44.23571 | 9.12047 | 15967 ft | 303 kts | 145° |
| 2026-04-21 20:22 | 44.20200 | 9.15659 | 15979 ft | 311 kts | 146° |
| 2026-04-21 20:22 | 44.18458 | 9.17503 | 15976 ft | 317 kts | 146° |
| 2026-04-21 20:23 | 44.16703 | 9.19360 | 15966 ft | 316 kts | 146° |
| 2026-04-21 20:23 | 44.14994 | 9.21168 | 15952 ft | 313 kts | 146° |
| 2026-04-21 20:23 | 44.13258 | 9.23002 | 15953 ft | 311 kts | 146° |
| 2026-04-21 20:23 | 44.11543 | 9.24813 | 15868 ft | 309 kts | 146° |
| 2026-04-21 20:24 | 44.09833 | 9.26616 | 15644 ft | 308 kts | 146° |
| 2026-04-21 20:24 | 44.08082 | 9.28322 | 15375 ft | 305 kts | 158° |
| 2026-04-21 20:24 | 44.06081 | 9.29005 | 15060 ft | 295 kts | 186° |
| 2026-04-21 20:24 | 44.04116 | 9.28526 | 15010 ft | 283 kts | 208° |
| 2026-04-21 20:25 | 44.02503 | 9.27160 | 14818 ft | 263 kts | 229° |
| 2026-04-21 20:25 | 44.01437 | 9.25157 | 14276 ft | 257 kts | 251° |
| 2026-04-21 20:25 | 44.00979 | 9.22795 | 13798 ft | 252 kts | 269° |
| 2026-04-21 20:25 | 44.01120 | 9.20400 | 13368 ft | 249 kts | 286° |
| 2026-04-21 20:26 | 44.01742 | 9.18166 | 12956 ft | 248 kts | 300° |
| 2026-04-21 20:26 | 44.02824 | 9.16339 | 12498 ft | 248 kts | 318° |
| 2026-04-21 20:26 | 44.04185 | 9.14841 | 12062 ft | 250 kts | 320° |
| 2026-04-21 20:26 | 44.05547 | 9.13368 | 11616 ft | 246 kts | 321° |
| 2026-04-21 20:27 | 44.06896 | 9.11853 | 11091 ft | 251 kts | 318° |
| 2026-04-21 20:27 | 44.08270 | 9.10327 | 10756 ft | 254 kts | 320° |
| 2026-04-21 20:27 | 44.09658 | 9.08827 | 10498 ft | 251 kts | 324° |
| 2026-04-21 20:27 | 44.11294 | 9.07930 | 10141 ft | 259 kts | 351° |
| 2026-04-21 20:28 | 44.13095 | 9.07953 | 10017 ft | 262 kts | 8° |
| 2026-04-21 20:28 | 44.14803 | 9.08781 | 9971 ft | 261 kts | 27° |
| 2026-04-21 20:28 | 44.16215 | 9.10337 | 9959 ft | 263 kts | 50° |
| 2026-04-21 20:28 | 44.17118 | 9.12544 | 9918 ft | 266 kts | 73° |
| 2026-04-21 20:29 | 44.17214 | 9.15083 | 9804 ft | 262 kts | 98° |
| 2026-04-21 20:29 | 44.16750 | 9.17540 | 9510 ft | 263 kts | 112° |
| 2026-04-21 20:29 | 44.15895 | 9.19785 | 9247 ft | 261 kts | 131° |
| 2026-04-21 20:29 | 44.14573 | 9.21464 | 9085 ft | 255 kts | 141° |
| 2026-04-21 20:30 | 44.13205 | 9.22979 | 9015 ft | 248 kts | 143° |
| 2026-04-21 20:30 | 44.11859 | 9.24436 | 8705 ft | 243 kts | 142° |
| 2026-04-21 20:30 | 44.10506 | 9.25880 | 8290 ft | 247 kts | 143° |
| 2026-04-21 20:30 | 44.09148 | 9.27312 | 8079 ft | 242 kts | 143° |
| 2026-04-21 20:31 | 44.08002 | 9.29014 | 7779 ft | 244 kts | 114° |
| 2026-04-21 20:31 | 44.07844 | 9.31284 | 7563 ft | 237 kts | 76° |
| 2026-04-21 20:31 | 44.08619 | 9.33276 | 7192 ft | 238 kts | 45° |
| 2026-04-21 20:31 | 44.09956 | 9.34615 | 6958 ft | 235 kts | 29° |
| 2026-04-21 20:32 | 44.11381 | 9.35745 | 6662 ft | 238 kts | 27° |
| 2026-04-21 20:32 | 44.12822 | 9.36826 | 6449 ft | 235 kts | 31° |
| 2026-04-21 20:32 | 44.14270 | 9.37823 | 6177 ft | 233 kts | 12° |
| 2026-04-21 20:32 | 44.15813 | 9.37488 | 6029 ft | 231 kts | 327° |
| 2026-04-21 20:33 | 44.17160 | 9.36222 | 6021 ft | 236 kts | 325° |
| 2026-04-21 20:33 | 44.18496 | 9.34939 | 5992 ft | 231 kts | 324° |
| 2026-04-21 20:33 | 44.19781 | 9.33610 | 5990 ft | 229 kts | 323° |
| 2026-04-21 20:33 | 44.21054 | 9.32270 | 6004 ft | 230 kts | 324° |
| 2026-04-21 20:34 | 44.22342 | 9.30909 | 5997 ft | 235 kts | 323° |
| 2026-04-21 20:34 | 44.23637 | 9.29526 | 5979 ft | 234 kts | 322° |
| 2026-04-21 20:34 | 44.24932 | 9.28146 | 5991 ft | 235 kts | 325° |
| 2026-04-21 20:34 | 44.26246 | 9.26823 | 5977 ft | 230 kts | 322° |
| 2026-04-21 20:35 | 44.27489 | 9.25414 | 5703 ft | 231 kts | 323° |
| 2026-04-21 20:35 | 44.28769 | 9.24030 | 5463 ft | 232 kts | 323° |
| 2026-04-21 20:35 | 44.29615 | 9.23141 | 5350 ft | 228 kts | 323° |
| 2026-04-21 20:35 | 44.31330 | 9.21402 | 4904 ft | 232 kts | 323° |
| 2026-04-21 20:36 | 44.32193 | 9.20491 | 4783 ft | 228 kts | 323° |
| 2026-04-21 20:36 | 44.33661 | 9.18481 | 4496 ft | 220 kts | 294° |
| 2026-04-21 20:36 | 44.34082 | 9.16508 | 4493 ft | 209 kts | 287° |
| 2026-04-21 20:36 | 44.34561 | 9.14607 | 4411 ft | 209 kts | 292° |
| 2026-04-21 20:37 | 44.34920 | 9.13318 | 4221 ft | 213 kts | 290° |
| 2026-04-21 20:37 | 44.35353 | 9.11396 | 3926 ft | 208 kts | 287° |
| 2026-04-21 20:37 | 44.35748 | 9.09499 | 3631 ft | 198 kts | 287° |
| 2026-04-21 20:37 | 44.36132 | 9.07690 | 3367 ft | 190 kts | 287° |
| 2026-04-21 20:38 | 44.36513 | 9.05924 | 3110 ft | 189 kts | 287° |
| 2026-04-21 20:38 | 44.36898 | 9.04151 | 2848 ft | 186 kts | 287° |
| 2026-04-21 20:38 | 44.37264 | 9.02463 | 2602 ft | 182 kts | 287° |
| 2026-04-21 20:38 | 44.37628 | 9.00777 | 2342 ft | 181 kts | 287° |
| 2026-04-21 20:39 | 44.37991 | 8.99093 | 2085 ft | 180 kts | 288° |
| 2026-04-21 20:39 | 44.38356 | 8.97426 | 1831 ft | 179 kts | 288° |
| 2026-04-21 20:39 | 44.38712 | 8.95792 | 1608 ft | 170 kts | 287° |
| 2026-04-21 20:39 | 44.39059 | 8.94196 | 1343 ft | 167 kts | 287° |
| 2026-04-21 20:40 | 44.39384 | 8.92704 | 1108 ft | 159 kts | 287° |
| 2026-04-21 20:40 | 44.39746 | 8.91231 | 914 ft | 157 kts | 293° |
| 2026-04-21 20:40 | 44.40109 | 8.89806 | 686 ft | 158 kts | 286° |
| 2026-04-21 20:40 | 44.40379 | 8.88317 | 431 ft | 158 kts | 283° |
| 2026-04-21 20:41 | 44.40675 | 8.86840 | 224 ft | 157 kts | 288° |
| 2026-04-21 20:41 | 44.40963 | 8.85364 | 28 ft | 155 kts | 285° |
| 2026-04-21 20:41 | 44.41215 | 8.84095 | 21 ft | 108 kts | 285° |
| 2026-04-21 20:41 | 44.41343 | 8.83435 | 21 ft | 43 kts | 285° |
| 2026-04-21 20:42 | 44.41416 | 8.83167 | 22 ft | 21 kts | 308° |
| 2026-04-21 20:42 | 44.41498 | 8.83090 | 20 ft | 13 kts | 357° |
| 2026-04-21 20:42 | 44.41544 | 8.83176 | 19 ft | 12 kts | 96° |
| 2026-04-21 20:42 | 44.41523 | 8.83289 | 19 ft | 12 kts | 104° |
| 2026-04-21 20:43 | 44.41501 | 8.83400 | 19 ft | 12 kts | 105° |
| 2026-04-21 20:43 | 44.41481 | 8.83508 | 19 ft | 11 kts | 105° |
| 2026-04-21 20:43 | 44.41460 | 8.83613 | 19 ft | 11 kts | 105° |
| 2026-04-21 20:43 | 44.41440 | 8.83715 | 19 ft | 11 kts | 106° |
| 2026-04-21 20:44 | 44.41420 | 8.83814 | 19 ft | 10 kts | 105° |
| 2026-04-21 20:44 | 44.41402 | 8.83910 | 19 ft | 10 kts | 104° |
| 2026-04-21 20:44 | 44.41384 | 8.84004 | 21 ft | 10 kts | 104° |
| 2026-04-21 20:44 | 44.41367 | 8.84094 | 19 ft | 10 kts | 105° |
| 2026-04-21 20:45 | 44.41348 | 8.84183 | 19 ft | 9 kts | 106° |
| 2026-04-21 20:45 | 44.41331 | 8.84269 | 19 ft | 9 kts | 105° |
| 2026-04-21 20:45 | 44.41315 | 8.84353 | 19 ft | 9 kts | 105° |
| 2026-04-21 20:45 | 44.41326 | 8.84429 | 20 ft | 8 kts | 53° |
| 2026-04-21 20:46 | 44.41378 | 8.84521 | 20 ft | 14 kts | 52° |
| 2026-04-21 20:46 | 44.41410 | 8.84642 | 20 ft | 14 kts | 99° |
| 2026-04-21 20:46 | 44.41386 | 8.84767 | 19 ft | 13 kts | 104° |
| 2026-04-21 20:46 | 44.41363 | 8.84888 | 19 ft | 13 kts | 105° |
| 2026-04-21 20:47 | 44.41343 | 8.85006 | 21 ft | 12 kts | 103° |
| 2026-04-21 20:47 | 44.41349 | 8.85079 | 19 ft | 6 kts | 37° |
| 2026-04-21 20:47 | 44.41388 | 8.85096 | 19 ft | 3 kts | 15° |
| 2026-04-21 20:47 | 44.41392 | 8.85098 | 20 ft | 0 kts | 14° |